Time;durP1;ratioP1;P1;durP2;ratioP2;P2;SDS_P1;SDS_P2;PMS_P1;PMS_P2;Temp;Humidity;BMP_temperature;BMP_pressure;BME280_temperature;BME280_humidity;BME280_pressure;Samples;Min_cycle;Max_cycle;Signal;HPM_P1;HPM_P2
2022/11/19 00:02:16;;;;;;;2.73;2.57;;;1.40;20.30;;;;;;5056762;28;20248;-74
2022/11/19 00:04:42;;;;;;;3.00;2.50;;;1.30;20.60;;;;;;5055778;28;20209;-72
2022/11/19 00:07:08;;;;;;;3.53;3.23;;;1.30;20.70;;;;;;5056496;28;20483;-72
2022/11/19 00:09:33;;;;;;;3.17;2.60;;;1.30;5.10;;;;;;5056485;28;20213;-72
2022/11/19 00:14:43;;;;;;;2.90;2.40;;;1.20;16.70;;;;;;5055667;28;20198;-72
2022/11/19 00:17:09;;;;;;;3.23;2.93;;;1.20;18.90;;;;;;5056493;28;20465;-71
2022/11/19 00:19:35;;;;;;;4.50;3.57;;;1.20;20.30;;;;;;5056374;28;20167;-73
2022/11/19 00:22:00;;;;;;;6.27;2.80;;;1.20;20.90;;;;;;5056292;28;20171;-73
2022/11/19 00:24:28;;;;;;;3.97;3.00;;;1.20;24.70;;;;;;5054624;28;20179;-73
2022/11/19 00:26:54;;;;;;;2.67;2.50;;;1.10;19.50;;;;;;5054809;28;20694;-72
2022/11/19 00:29:20;;;;;;;4.30;3.53;;;1.00;13.90;;;;;;5055840;28;20413;-72
2022/11/19 00:31:46;;;;;;;3.60;3.30;;;1.00;21.40;;;;;;5056164;28;20405;-72
2022/11/19 00:34:12;;;;;;;3.47;3.27;;;1.10;21.80;;;;;;5053276;28;20445;-72
2022/11/19 00:36:38;;;;;;;3.87;2.83;;;1.10;21.00;;;;;;5055957;28;20224;-73
2022/11/19 00:39:04;;;;;;;3.47;3.10;;;0.90;22.90;;;;;;5055970;28;20925;-73
2022/11/19 00:41:29;;;;;;;3.60;3.20;;;0.90;23.20;;;;;;5054732;28;20179;-72
2022/11/19 00:43:55;;;;;;;4.33;3.47;;;0.90;28.70;;;;;;5055349;28;20413;-73
2022/11/19 00:46:26;;;;;;;3.83;2.50;;;1.00;38.40;;;;;;5055387;28;20194;-72
2022/11/19 00:48:54;;;;;;;3.20;3.00;;;1.10;48.20;;;;;;5054338;28;20257;-73
2022/11/19 00:51:21;;;;;;;2.55;2.35;;;1.30;52.40;;;;;;5056014;28;20539;-72
2022/11/19 00:53:47;;;;;;;2.37;2.27;;;1.30;62.20;;;;;;5055183;28;20167;-72
2022/11/19 00:56:15;;;;;;;2.73;2.53;;;1.40;61.90;;;;;;5055700;28;20432;-75
2022/11/19 00:58:41;;;;;;;2.30;2.20;;;1.50;61.00;;;;;;5055731;28;20170;-73
2022/11/19 01:01:08;;;;;;;5.50;3.40;;;1.50;59.90;;;;;;5054383;28;20501;-73
2022/11/19 01:03:36;;;;;;;2.70;2.60;;;1.60;67.30;;;;;;5053523;28;20406;-72
2022/11/19 01:06:02;;;;;;;5.83;3.53;;;1.70;67.90;;;;;;5055390;28;20463;-72
2022/11/19 01:08:27;;;;;;;3.30;3.07;;;1.80;67.20;;;;;;5054205;28;20484;-73
2022/11/19 01:10:53;;;;;;;2.90;2.70;;;1.90;68.50;;;;;;5055473;28;20937;-72
2022/11/19 01:13:34;;;;;;;3.17;2.97;;;1.90;78.10;;;;;;5055290;28;20165;-73
2022/11/19 01:16:16;;;;;;;4.90;3.60;;;2.00;76.40;;;;;;5055068;28;20183;-73
2022/11/19 01:18:43;;;;;;;3.50;3.10;;;2.10;82.10;;;;;;5055388;28;20433;-72
2022/11/19 01:21:10;;;;;;;4.07;3.33;;;2.10;83.30;;;;;;5055207;28;20410;-72
2022/11/19 01:23:37;;;;;;;3.53;3.23;;;2.20;89.10;;;;;;5054169;28;20406;-77
2022/11/19 01:26:03;;;;;;;3.17;2.50;;;2.30;89.20;;;;;;5053865;28;20546;-73
2022/11/19 01:28:29;;;;;;;13.60;2.70;;;2.30;89.50;;;;;;5055092;28;20397;-73
2022/11/19 01:30:55;;;;;;;2.73;2.07;;;2.40;89.60;;;;;;5054001;28;20232;-72
2022/11/19 01:33:21;;;;;;;3.07;2.80;;;2.40;89.50;;;;;;5054943;28;20429;-72
2022/11/19 01:36:14;;;;;;;2.90;2.33;;;2.50;89.70;;;;;;5053111;28;20425;-73
2022/11/19 01:38:40;;;;;;;3.20;2.90;;;2.50;89.70;;;;;;5053340;28;20546;-74
2022/11/19 01:41:07;;;;;;;2.00;1.90;;;2.50;89.70;;;;;;5054778;28;20413;-75
2022/11/19 01:43:49;;;;;;;2.10;2.00;;;2.50;89.70;;;;;;5054125;28;20409;-75
2022/11/19 01:46:21;;;;;;;3.97;2.87;;;2.50;89.60;;;;;;5054460;28;20460;-74
2022/11/19 01:48:55;;;;;;;2.50;2.30;;;2.50;89.70;;;;;;5069997;28;20427;-73
2022/11/19 01:51:30;;;;;;;2.10;2.00;;;2.50;89.60;;;;;;5053451;28;20424;-76
2022/11/19 01:54:02;;;;;;;2.93;2.63;;;2.50;89.70;;;;;;5069543;28;20404;-74
2022/11/19 01:56:29;;;;;;;2.10;2.00;;;2.50;89.60;;;;;;5054695;28;20440;-74
2022/11/19 01:58:59;;;;;;;2.30;2.10;;;2.50;89.80;;;;;;5069722;28;20428;-74
2022/11/19 02:01:27;;;;;;;2.50;2.20;;;2.50;89.70;;;;;;5054451;28;20405;-74
2022/11/19 02:03:53;;;;;;;2.43;2.30;;;2.30;89.60;;;;;;5052747;28;20435;-73
2022/11/19 02:06:18;;;;;;;3.20;2.53;;;2.20;89.40;;;;;;5054384;28;20531;-74
2022/11/19 02:08:48;;;;;;;2.50;2.30;;;2.00;89.30;;;;;;5054383;28;20394;-73
2022/11/19 02:11:36;;;;;;;2.13;2.03;;;2.00;89.30;;;;;;5054201;28;20249;-74
2022/11/19 02:14:20;;;;;;;1.87;1.77;;;2.00;89.30;;;;;;5053610;28;20476;-74
2022/11/19 02:17:02;;;;;;;2.93;2.53;;;2.00;94.10;;;;;;5053068;28;20417;-73
2022/11/19 02:19:55;;;;;;;21.80;13.77;;;2.10;97.60;;;;;;5053624;28;20833;-74
2022/11/19 02:23:12;;;;;;;4.07;3.70;;;2.20;97.80;;;;;;5054142;28;20454;-75
2022/11/19 02:25:56;;;;;;;3.13;2.83;;;2.30;99.90;;;;;;5051814;28;20978;-75
2022/11/19 02:28:32;;;;;;;2.77;2.57;;;2.30;99.90;;;;;;5052797;28;20845;-73
2022/11/19 02:31:04;;;;;;;2.47;2.33;;;2.30;93.30;;;;;;5052874;28;20820;-74
2022/11/19 02:33:48;;;;;;;6.57;2.70;;;2.40;99.90;;;;;;5053671;28;20389;-74
2022/11/19 02:36:45;;;;;;;10.23;2.50;;;2.40;99.90;;;;;;5053769;28;20421;-74
2022/11/19 02:39:38;;;;;;;3.10;2.40;;;2.40;99.90;;;;;;5068690;28;20467;-74
2022/11/19 02:42:17;;;;;;;2.13;2.03;;;2.40;99.90;;;;;;5053322;28;20813;-73
2022/11/19 02:44:57;;;;;;;2.30;2.10;;;2.40;99.90;;;;;;5053053;28;20406;-73
2022/11/19 02:47:33;;;;;;;2.10;2.00;;;2.20;99.90;;;;;;5053517;28;20428;-74
2022/11/19 02:50:10;;;;;;;2.43;2.07;;;2.20;97.80;;;;;;5068951;28;20785;-73
2022/11/19 02:52:38;;;;;;;2.40;2.30;;;2.20;99.90;;;;;;5052280;28;20922;-73
2022/11/19 02:55:04;;;;;;;1.90;1.80;;;2.30;99.90;;;;;;5052471;28;20909;-74
2022/11/19 02:57:30;;;;;;;2.60;2.40;;;2.30;99.90;;;;;;5052894;28;20428;-74
2022/11/19 03:06:06;;;;;;;3.20;2.90;;;2.40;99.90;;;;;;5033175;28;20830;-74
2022/11/19 03:08:32;;;;;;;4.40;3.30;;;2.40;99.90;;;;;;5053396;28;20497;-74
2022/11/19 03:11:12;;;;;;;2.70;2.50;;;2.40;99.90;;;;;;5052960;28;20979;-74
2022/11/19 03:16:41;;;;;;;5.90;5.20;;;2.50;99.90;;;;;;5053258;28;20417;-74
2022/11/19 03:19:10;;;;;;;3.00;2.73;;;2.50;99.90;;;;;;5053276;28;20766;-74
2022/11/19 03:21:51;;;;;;;24.07;16.30;;;2.50;99.90;;;;;;5052238;28;20778;-74
2022/11/19 03:24:24;;;;;;;6.90;5.40;;;2.50;99.90;;;;;;5051230;28;20421;-74
2022/11/19 03:27:01;;;;;;;5.63;5.13;;;2.50;99.90;;;;;;5053037;28;20461;-73
2022/11/19 03:29:30;;;;;;;3.67;3.37;;;2.50;99.90;;;;;;5052763;28;20805;-74
2022/11/19 03:32:04;;;;;;;5.70;3.00;;;2.50;99.90;;;;;;5053171;28;20755;-75
2022/11/19 03:34:32;;;;;;;2.70;2.50;;;2.50;99.90;;;;;;5052399;28;20401;-74
2022/11/19 03:37:00;;;;;;;9.20;3.10;;;2.40;99.90;;;;;;5053041;28;20417;-74
2022/11/19 03:39:26;;;;;;;2.80;2.60;;;2.40;99.90;;;;;;5052052;28;20832;-74
2022/11/19 03:41:55;;;;;;;2.60;2.40;;;2.40;99.90;;;;;;5053112;28;20770;-73
2022/11/19 03:44:30;;;;;;;3.30;3.00;;;2.40;99.90;;;;;;5050967;28;20413;-74
2022/11/19 03:47:05;;;;;;;2.60;2.40;;;2.30;99.90;;;;;;5052494;28;20535;-74
2022/11/19 03:49:36;;;;;;;2.90;2.70;;;2.30;99.90;;;;;;5052973;28;20404;-74
2022/11/19 03:52:18;;;;;;;2.87;2.67;;;2.30;99.90;;;;;;5052862;28;20755;-74
2022/11/19 03:54:44;;;;;;;3.50;3.30;;;2.20;99.90;;;;;;5052196;28;20405;-73
2022/11/19 03:57:13;;;;;;;5.97;2.63;;;2.20;99.90;;;;;;5052878;28;20421;-73
2022/11/19 03:59:39;;;;;;;3.50;2.83;;;2.10;99.90;;;;;;5051831;28;20417;-73
2022/11/19 04:02:10;;;;;;;3.20;3.00;;;2.00;99.90;;;;;;5052769;28;20405;-75
2022/11/19 04:04:37;;;;;;;2.90;2.70;;;1.90;99.90;;;;;;5051581;28;20475;-74
2022/11/19 04:07:14;;;;;;;2.93;2.73;;;1.90;99.90;;;;;;5052639;28;20457;-74
2022/11/19 04:09:41;;;;;;;2.87;2.63;;;1.90;99.90;;;;;;5056679;28;20401;-73
2022/11/19 04:12:13;;;;;;;3.83;3.03;;;1.90;99.90;;;;;;5056680;28;20740;-74
2022/11/19 04:14:39;;;;;;;2.90;2.70;;;1.90;99.90;;;;;;5055806;28;20393;-74
2022/11/19 04:17:04;;;;;;;4.13;2.87;;;1.90;99.90;;;;;;5056315;28;20432;-74
2022/11/19 04:19:30;;;;;;;5.13;3.30;;;1.80;99.90;;;;;;5056874;28;20208;-73
2022/11/19 04:21:56;;;;;;;2.90;2.63;;;1.70;99.90;;;;;;5055945;28;20167;-73
2022/11/19 04:24:22;;;;;;;3.33;3.00;;;1.70;99.90;;;;;;5055403;28;20175;-74
2022/11/19 04:26:47;;;;;;;6.70;3.00;;;1.70;99.90;;;;;;5056146;28;20210;-75
2022/11/19 04:29:13;;;;;;;3.10;2.90;;;1.70;99.90;;;;;;5056464;28;20167;-74
2022/11/19 04:31:39;;;;;;;2.73;2.53;;;1.80;99.90;;;;;;5056233;28;20320;-75
2022/11/19 04:34:05;;;;;;;3.13;2.87;;;1.90;99.90;;;;;;5055605;28;20182;-74
2022/11/19 04:36:31;;;;;;;4.67;2.97;;;1.90;99.90;;;;;;5056030;28;20427;-75
2022/11/19 04:38:57;;;;;;;2.83;2.63;;;1.90;99.90;;;;;;5054774;28;20647;-73
2022/11/19 04:41:23;;;;;;;3.47;3.20;;;2.00;99.90;;;;;;5055542;28;20424;-73
2022/11/19 04:43:48;;;;;;;3.30;3.10;;;2.00;99.90;;;;;;5055417;28;20224;-73
2022/11/19 04:46:14;;;;;;;3.57;3.30;;;2.00;99.90;;;;;;5054436;28;20206;-74
2022/11/19 04:48:40;;;;;;;3.73;3.00;;;2.00;99.90;;;;;;5055819;28;20174;-74
2022/11/19 04:51:05;;;;;;;3.20;3.00;;;2.00;99.90;;;;;;5055788;28;20178;-73
2022/11/19 04:53:31;;;;;;;3.30;3.07;;;2.00;99.90;;;;;;5055852;28;20600;-74
2022/11/19 04:55:57;;;;;;;3.07;2.87;;;1.90;99.90;;;;;;5055174;28;20217;-74
2022/11/19 04:58:22;;;;;;;4.13;3.23;;;1.90;99.90;;;;;;5054321;28;20524;-73
2022/11/19 05:00:48;;;;;;;2.60;2.40;;;1.90;99.90;;;;;;5055078;28;20175;-75
2022/11/19 05:03:14;;;;;;;4.43;3.80;;;1.90;99.90;;;;;;5055520;28;20631;-73
2022/11/19 05:05:39;;;;;;;3.47;3.23;;;1.80;99.90;;;;;;5054652;28;20206;-74
2022/11/19 05:08:05;;;;;;;3.53;3.23;;;1.80;99.90;;;;;;5055433;28;20527;-73
2022/11/19 05:10:31;;;;;;;5.27;3.60;;;1.70;99.90;;;;;;5055716;28;20174;-72
2022/11/19 05:12:57;;;;;;;4.20;3.03;;;1.70;99.90;;;;;;5055418;28;20406;-73
2022/11/19 05:15:23;;;;;;;3.43;2.87;;;1.70;99.10;;;;;;5053490;28;20186;-73
2022/11/19 05:17:48;;;;;;;4.17;2.80;;;1.70;99.90;;;;;;5054926;28;20220;-73
2022/11/19 05:20:14;;;;;;;2.83;2.43;;;1.70;99.90;;;;;;5054810;28;20255;-73
2022/11/19 05:22:40;;;;;;;3.10;2.80;;;1.60;97.70;;;;;;5054154;28;20631;-73
2022/11/19 05:25:08;;;;;;;2.70;2.50;;;1.60;98.40;;;;;;5069825;28;20467;-74
2022/11/19 05:27:34;;;;;;;3.77;3.57;;;1.60;98.50;;;;;;5054076;28;20244;-73
2022/11/19 05:30:00;;;;;;;3.50;3.20;;;1.50;92.90;;;;;;5055106;28;20406;-74
2022/11/19 05:32:25;;;;;;;3.67;3.30;;;1.50;95.00;;;;;;5055244;28;20479;-73
2022/11/19 05:34:51;;;;;;;3.93;3.50;;;1.50;99.90;;;;;;5052996;28;20178;-74
2022/11/19 05:37:17;;;;;;;10.37;3.47;;;1.50;99.90;;;;;;5053274;28;20502;-74
2022/11/19 05:39:43;;;;;;;4.20;3.87;;;1.50;97.70;;;;;;5054924;28;20171;-73
2022/11/19 05:42:08;;;;;;;3.20;3.00;;;1.60;98.80;;;;;;5054993;28;20197;-73
2022/11/19 05:44:34;;;;;;;3.30;3.10;;;1.50;99.90;;;;;;5054195;28;20244;-73
2022/11/19 05:47:00;;;;;;;3.57;3.27;;;1.50;99.90;;;;;;5053311;28;20598;-74
2022/11/19 05:49:25;;;;;;;6.20;3.97;;;1.50;98.90;;;;;;5054772;28;20174;-73
2022/11/19 05:51:51;;;;;;;3.17;2.97;;;1.40;99.90;;;;;;5053474;28;20175;-73
2022/11/19 05:54:17;;;;;;;3.47;2.83;;;1.30;95.50;;;;;;5053632;28;20528;-73
2022/11/19 05:56:43;;;;;;;3.77;3.40;;;1.30;96.50;;;;;;5054566;28;20197;-73
2022/11/19 05:59:08;;;;;;;3.17;2.80;;;1.30;95.20;;;;;;5054410;28;20632;-74
2022/11/19 06:01:34;;;;;;;4.60;2.90;;;1.20;92.00;;;;;;5054413;28;20921;-73
2022/11/19 06:04:00;;;;;;;4.00;3.43;;;1.20;96.80;;;;;;5053725;28;20658;-74
2022/11/19 06:06:26;;;;;;;3.67;3.37;;;1.10;94.40;;;;;;5054206;28;20203;-73
2022/11/19 06:08:52;;;;;;;3.30;3.00;;;1.10;94.30;;;;;;5054414;28;20276;-73
2022/11/19 06:14:02;;;;;;;4.43;2.60;;;1.00;93.00;;;;;;5053371;28;20173;-73
2022/11/19 06:16:28;;;;;;;6.73;3.30;;;1.00;95.10;;;;;;5054157;28;20430;-73
2022/11/19 06:18:54;;;;;;;3.93;3.63;;;1.10;91.10;;;;;;5054213;28;20809;-73
2022/11/19 06:21:19;;;;;;;7.90;4.40;;;1.10;90.20;;;;;;5052923;28;20175;-73
2022/11/19 06:23:45;;;;;;;5.40;2.60;;;1.10;90.70;;;;;;5053379;28;20186;-73
2022/11/19 06:26:22;;;;;;;3.03;2.83;;;1.00;95.80;;;;;;5053959;28;20207;-73
2022/11/19 06:28:47;;;;;;;3.20;3.00;;;0.90;88.60;;;;;;5054024;28;20190;-73
2022/11/19 06:31:13;;;;;;;2.83;2.63;;;1.00;96.30;;;;;;5052931;28;20175;-74
2022/11/19 06:33:39;;;;;;;4.30;3.40;;;1.10;99.20;;;;;;5052973;28;20167;-73
2022/11/19 06:36:05;;;;;;;4.03;3.73;;;1.30;99.90;;;;;;5054027;28;20677;-73
2022/11/19 06:38:31;;;;;;;7.20;3.43;;;1.30;99.90;;;;;;5053905;28;20175;-73
2022/11/19 06:40:56;;;;;;;4.17;3.20;;;1.40;99.90;;;;;;5053735;28;20413;-73
2022/11/19 06:43:22;;;;;;;4.17;3.53;;;1.40;99.90;;;;;;5053723;28;20181;-72
2022/11/19 06:45:48;;;;;;;3.17;2.97;;;1.50;99.90;;;;;;5052934;28;20199;-74
2022/11/19 06:48:13;;;;;;;4.63;2.57;;;1.50;99.90;;;;;;5053328;28;20303;-74
2022/11/19 06:50:39;;;;;;;6.57;3.30;;;1.60;99.90;;;;;;5053644;28;20170;-73
2022/11/19 06:53:05;;;;;;;4.20;3.90;;;1.60;99.90;;;;;;5053588;28;20159;-73
2022/11/19 06:55:30;;;;;;;4.10;3.80;;;1.60;99.90;;;;;;5052734;28;20186;-73
2022/11/19 06:58:01;;;;;;;4.57;4.17;;;1.70;99.90;;;;;;5053381;28;20261;-73
2022/11/19 07:00:26;;;;;;;4.33;3.93;;;1.60;99.90;;;;;;5053605;28;20221;-73
2022/11/19 07:02:52;;;;;;;2.93;2.63;;;1.60;99.90;;;;;;5053541;28;20405;-73
2022/11/19 07:05:18;;;;;;;4.77;3.40;;;1.70;99.90;;;;;;5052497;28;20230;-73
2022/11/19 07:07:44;;;;;;;8.43;4.03;;;1.70;99.90;;;;;;5052613;28;20544;-73
2022/11/19 07:10:09;;;;;;;4.30;2.90;;;1.70;99.90;;;;;;5053202;28;20167;-75
2022/11/19 07:12:35;;;;;;;5.37;3.63;;;1.70;98.30;;;;;;5053691;28;20178;-74
2022/11/19 07:15:01;;;;;;;8.00;3.30;;;1.70;99.90;;;;;;5052708;28;20245;-75
2022/11/19 07:17:27;;;;;;;4.00;3.60;;;1.80;99.00;;;;;;5053295;28;20270;-75
2022/11/19 07:19:52;;;;;;;5.23;4.70;;;1.80;99.90;;;;;;5053289;28;20174;-75
2022/11/19 07:22:18;;;;;;;4.97;4.00;;;1.90;99.90;;;;;;5053328;28;20671;-74
2022/11/19 07:24:44;;;;;;;4.87;4.47;;;1.90;99.90;;;;;;5051352;28;20532;-75
2022/11/19 07:27:10;;;;;;;5.33;3.57;;;1.90;99.90;;;;;;5052805;28;20281;-75
2022/11/19 07:29:37;;;;;;;7.70;4.30;;;1.90;99.90;;;;;;5053239;28;20171;-73
2022/11/19 07:32:03;;;;;;;7.73;3.97;;;2.00;99.90;;;;;;5053143;28;20393;-75
2022/11/19 07:34:29;;;;;;;3.80;3.50;;;2.00;99.90;;;;;;5052433;28;20432;-75
2022/11/19 07:36:55;;;;;;;3.90;3.60;;;2.00;99.90;;;;;;5053169;28;20850;-75
2022/11/19 07:39:21;;;;;;;4.93;4.23;;;2.00;99.90;;;;;;5053362;28;20202;-75
2022/11/19 07:44:31;;;;;;;5.07;3.67;;;2.10;99.90;;;;;;5055915;28;20258;-74
2022/11/19 07:46:57;;;;;;;3.90;3.43;;;2.10;99.90;;;;;;5056801;28;21017;-75
2022/11/19 07:49:23;;;;;;;4.13;3.73;;;2.00;99.90;;;;;;5057083;28;20401;-73
2022/11/19 07:51:49;;;;;;;5.70;3.47;;;2.10;99.90;;;;;;5056916;28;20389;-74
2022/11/19 07:54:15;;;;;;;4.07;3.47;;;2.10;99.90;;;;;;5056159;28;20394;-75
2022/11/19 07:56:41;;;;;;;4.27;3.90;;;2.10;99.90;;;;;;5056755;28;20421;-74
2022/11/19 07:59:07;;;;;;;5.20;4.60;;;2.20;99.90;;;;;;5056924;28;20454;-76
2022/11/19 08:01:33;;;;;;;7.60;5.50;;;2.20;99.90;;;;;;5056604;28;20175;-76
2022/11/19 08:03:59;;;;;;;5.07;4.63;;;2.20;99.90;;;;;;5055718;28;20436;-74
2022/11/19 08:06:26;;;;;;;5.93;5.27;;;2.30;99.90;;;;;;5056317;28;20496;-75
2022/11/19 08:08:54;;;;;;;4.80;4.40;;;2.30;99.90;;;;;;5056806;28;20404;-73
2022/11/19 08:11:21;;;;;;;6.30;4.60;;;2.40;99.90;;;;;;5055330;28;20463;-75
2022/11/19 08:13:46;;;;;;;15.73;4.93;;;2.50;99.90;;;;;;5055986;28;20436;-74
2022/11/19 08:19:08;;;;;;;6.47;4.70;;;2.40;99.90;;;;;;5044715;28;20240;-75
2022/11/19 08:21:35;;;;;;;4.67;4.17;;;2.40;99.90;;;;;;5056570;28;20401;-73
2022/11/19 08:24:01;;;;;;;6.60;4.50;;;2.50;99.90;;;;;;5055740;28;20417;-74
2022/11/19 08:26:26;;;;;;;4.93;4.53;;;2.50;99.90;;;;;;5054811;28;20452;-76
2022/11/19 08:28:52;;;;;;;6.00;5.10;;;2.60;99.90;;;;;;5056366;28;20413;-74
2022/11/19 08:31:18;;;;;;;6.07;4.70;;;2.60;99.90;;;;;;5056227;28;20178;-74
2022/11/19 08:33:44;;;;;;;6.43;5.67;;;2.70;99.90;;;;;;5055493;28;20878;-75
2022/11/19 08:36:10;;;;;;;12.53;4.63;;;2.80;99.90;;;;;;5055707;28;20194;-75
2022/11/19 08:38:35;;;;;;;9.20;5.57;;;2.80;99.90;;;;;;5056030;28;20167;-74
2022/11/19 08:43:45;;;;;;;6.57;5.50;;;2.80;99.90;;;;;;5055419;28;20322;-75
2022/11/19 08:46:11;;;;;;;5.17;4.50;;;2.90;99.90;;;;;;5055568;28;21000;-74
2022/11/19 08:48:37;;;;;;;4.50;4.07;;;2.90;99.90;;;;;;5055782;28;20166;-75
2022/11/19 08:51:09;;;;;;;12.03;4.33;;;3.00;99.90;;;;;;5055772;28;20227;-75
2022/11/19 08:53:35;;;;;;;4.27;3.77;;;3.00;99.90;;;;;;5055231;28;20159;-75
2022/11/19 08:56:00;;;;;;;4.73;3.73;;;2.90;99.90;;;;;;5054550;28;20436;-74
2022/11/19 08:58:26;;;;;;;4.33;3.93;;;2.90;99.90;;;;;;5054658;28;20398;-76
2022/11/19 09:00:53;;;;;;;4.97;4.17;;;2.90;99.90;;;;;;5055549;28;20182;-74
2022/11/19 09:03:18;;;;;;;4.00;3.70;;;2.80;99.90;;;;;;5055648;28;20202;-77
2022/11/19 09:05:44;;;;;;;3.83;3.53;;;2.80;99.90;;;;;;5054811;28;20500;-75
2022/11/19 09:08:10;;;;;;;4.27;3.93;;;2.70;99.90;;;;;;5054440;28;20167;-76
2022/11/19 09:10:36;;;;;;;7.00;5.13;;;2.70;99.90;;;;;;5055277;28;20588;-75
2022/11/19 09:13:04;;;;;;;4.53;4.20;;;2.70;99.90;;;;;;5054897;28;20595;-75
2022/11/19 09:15:29;;;;;;;2.80;2.53;;;2.70;99.90;;;;;;5054654;28;20476;-76
2022/11/19 09:17:55;;;;;;;2.53;2.00;;;2.80;99.90;;;;;;5055541;28;20966;-77
2022/11/19 09:20:21;;;;;;;2.00;1.90;;;2.90;99.90;;;;;;5055430;28;20202;-77
2022/11/19 09:22:47;;;;;;;2.53;2.33;;;3.00;99.90;;;;;;5055169;28;20628;-76
2022/11/19 09:25:12;;;;;;;2.00;1.90;;;3.20;99.90;;;;;;5053100;28;20179;-74
2022/11/19 09:27:38;;;;;;;2.43;2.23;;;3.30;99.90;;;;;;5055194;28;20187;-75
2022/11/19 09:30:05;;;;;;;2.40;2.20;;;3.50;99.90;;;;;;5054805;28;20173;-76
2022/11/19 09:32:31;;;;;;;3.63;2.50;;;3.60;99.90;;;;;;5055185;28;20179;-77
2022/11/19 09:34:57;;;;;;;2.93;2.70;;;3.80;99.90;;;;;;5054329;28;20903;-80
2022/11/19 09:37:23;;;;;;;2.20;2.10;;;3.80;99.90;;;;;;5054969;28;20512;-77
2022/11/19 09:39:49;;;;;;;2.70;2.23;;;3.80;99.90;;;;;;5054913;28;20190;-79
2022/11/19 09:42:45;;;;;;;5.80;2.30;;;3.80;99.90;;;;;;5054698;28;20170;-79
2022/11/19 09:45:20;;;;;;;2.60;1.90;;;3.90;99.90;;;;;;5053212;28;20179;-80
2022/11/19 09:47:55;;;;;;;1.90;1.80;;;3.90;99.90;;;;;;5054523;28;20397;-72
2022/11/19 09:50:44;;;;;;;2.50;2.30;;;3.90;99.90;;;;;;5054738;28;20397;-81
2022/11/19 09:53:18;;;;;;;7.20;1.80;;;3.90;99.90;;;;;;5053297;28;20767;-80
2022/11/19 09:55:47;;;;;;;2.00;1.90;;;3.80;99.90;;;;;;5054079;28;20457;-85
2022/11/19 09:58:17;;;;;;;1.57;1.47;;;3.70;94.80;;;;;;5054644;28;20951;-84
2022/11/19 10:00:44;;;;;;;2.23;1.70;;;3.70;92.90;;;;;;5054524;28;20398;-73
2022/11/19 10:03:24;;;;;;;1.90;1.80;;;3.60;90.20;;;;;;5053871;28;20906;-84
2022/11/19 10:06:18;;;;;;;1.83;1.73;;;3.70;90.20;;;;;;5053643;28;20456;-73
2022/11/19 10:09:09;;;;;;;3.47;1.70;;;3.80;90.50;;;;;;5053134;28;20401;-83
2022/11/19 10:11:59;;;;;;;1.70;1.60;;;3.70;90.20;;;;;;5054292;28;20410;-83
2022/11/19 10:14:39;;;;;;;1.90;1.80;;;3.70;90.20;;;;;;5052528;28;20405;-83
2022/11/19 10:17:17;;;;;;;2.10;2.00;;;3.70;93.10;;;;;;5053142;28;20421;-82
2022/11/19 10:20:16;;;;;;;2.03;1.77;;;3.60;98.90;;;;;;5053624;28;20538;-83
2022/11/19 10:23:02;;;;;;;1.83;1.73;;;3.50;99.90;;;;;;5054421;28;20478;-83
2022/11/19 10:25:34;;;;;;;1.97;1.87;;;3.30;99.90;;;;;;5053309;28;20979;-83
2022/11/19 10:28:23;;;;;;;2.03;1.90;;;3.30;99.90;;;;;;5054001;28;20750;-73
2022/11/19 10:31:03;;;;;;;1.90;1.80;;;3.30;99.90;;;;;;5054167;28;20456;-83
2022/11/19 10:33:33;;;;;;;2.07;1.70;;;3.40;99.90;;;;;;5052748;28;20429;-85
2022/11/19 10:36:30;;;;;;;8.77;3.40;;;3.50;99.90;;;;;;5053429;28;20823;-85
2022/11/19 10:39:03;;;;;;;3.80;3.50;;;3.60;99.90;;;;;;5068539;28;20420;-74
2022/11/19 10:41:58;;;;;;;4.47;3.50;;;3.60;99.90;;;;;;5053789;28;20423;-82
2022/11/19 10:44:42;;;;;;;3.40;2.83;;;3.60;99.90;;;;;;5052104;28;20937;-84
2022/11/19 10:47:12;;;;;;;3.43;2.43;;;3.70;99.90;;;;;;5052334;28;20810;-73
2022/11/19 10:49:40;;;;;;;2.80;2.60;;;3.90;99.90;;;;;;5053559;28;20471;-83
2022/11/19 10:52:32;;;;;;;3.93;1.90;;;4.00;99.90;;;;;;5053689;28;20400;-72
2022/11/19 10:55:29;;;;;;;1.60;1.50;;;4.20;99.90;;;;;;5053027;28;20402;-85
2022/11/19 10:58:04;;;;;;;2.73;2.33;;;4.30;99.90;;;;;;5053214;28;20402;-71
2022/11/19 11:00:31;;;;;;;2.20;2.10;;;4.10;99.90;;;;;;5053652;28;20762;-73
2022/11/19 11:03:03;;;;;;;2.70;2.60;;;4.00;99.90;;;;;;5053460;28;20931;-83
2022/11/19 11:05:29;;;;;;;17.90;11.43;;;4.20;99.90;;;;;;5052493;28;20453;-72
2022/11/19 11:08:02;;;;;;;5.87;5.17;;;4.30;99.90;;;;;;5053371;28;20766;-72
2022/11/19 11:10:43;;;;;;;3.67;3.37;;;4.40;99.90;;;;;;5053532;28;20910;-82
2022/11/19 11:16:27;;;;;;;4.20;3.80;;;4.70;99.90;;;;;;5052973;28;20501;-72
2022/11/19 11:18:56;;;;;;;3.10;2.90;;;4.80;99.90;;;;;;5053032;28;20413;-80
2022/11/19 11:21:33;;;;;;;6.90;3.90;;;4.80;99.90;;;;;;5053444;28;20973;-71
2022/11/19 11:24:01;;;;;;;3.90;3.50;;;4.80;99.90;;;;;;5052621;28;20397;-80
2022/11/19 11:26:28;;;;;;;3.10;2.80;;;4.90;99.90;;;;;;5053236;28;20467;-81
2022/11/19 11:29:06;;;;;;;3.13;2.83;;;4.90;99.90;;;;;;5053287;28;20389;-80
2022/11/19 11:31:38;;;;;;;3.43;3.13;;;4.90;99.90;;;;;;5053279;28;20397;-80
2022/11/19 11:34:06;;;;;;;6.03;2.30;;;4.90;99.90;;;;;;5052610;28;20402;-80
2022/11/19 11:36:34;;;;;;;3.27;3.07;;;4.90;99.90;;;;;;5052907;28;20444;-80
2022/11/19 11:39:02;;;;;;;2.80;2.60;;;4.80;99.90;;;;;;5053604;28;20458;-80
2022/11/19 11:41:38;;;;;;;4.00;3.70;;;4.80;99.90;;;;;;5053352;28;20428;-72
2022/11/19 11:44:13;;;;;;;3.20;2.90;;;4.80;99.90;;;;;;5051035;28;20444;-70
2022/11/19 11:47:09;;;;;;;2.83;2.63;;;4.80;99.90;;;;;;5051674;28;20460;-76
2022/11/19 11:49:39;;;;;;;4.90;3.03;;;4.80;99.90;;;;;;5053095;28;20487;-79
2022/11/19 11:52:10;;;;;;;3.30;3.00;;;4.60;99.90;;;;;;5051938;28;20508;-72
2022/11/19 11:54:52;;;;;;;2.67;2.47;;;4.50;99.90;;;;;;5051863;28;20407;-71
2022/11/19 11:57:20;;;;;;;3.47;3.17;;;4.50;99.90;;;;;;5052875;28;20430;-72
2022/11/19 11:59:47;;;;;;;3.57;2.80;;;4.50;99.90;;;;;;5052919;28;20391;-70
2022/11/19 12:02:34;;;;;;;6.10;3.20;;;4.50;99.90;;;;;;5052781;28;20406;-70
2022/11/19 12:05:15;;;;;;;3.67;3.10;;;4.40;99.90;;;;;;5052109;28;20431;-71
2022/11/19 12:08:02;;;;;;;3.07;2.87;;;4.30;99.90;;;;;;5052681;28;20446;-74
2022/11/19 12:10:41;;;;;;;3.57;3.07;;;4.30;99.90;;;;;;5052783;28;20445;-75
2022/11/19 12:13:42;;;;;;;2.90;2.70;;;4.40;99.90;;;;;;5052327;28;20462;-74
2022/11/19 12:16:12;;;;;;;3.10;2.90;;;4.40;99.90;;;;;;5052524;28;20436;-74
2022/11/19 12:18:57;;;;;;;5.93;2.80;;;4.40;99.90;;;;;;5052692;28;20386;-72
2022/11/19 12:21:31;;;;;;;3.83;2.17;;;4.40;99.90;;;;;;5052957;28;20401;-75
2022/11/19 12:24:36;;;;;;;2.50;2.30;;;4.50;99.90;;;;;;5051112;28;20450;-72
2022/11/19 12:27:28;;;;;;;3.33;2.87;;;4.50;99.90;;;;;;5051939;28;20517;-72
2022/11/19 12:30:17;;;;;;;2.60;2.40;;;4.60;99.90;;;;;;5053303;28;20408;-71
2022/11/19 12:33:03;;;;;;;3.50;2.90;;;4.60;99.90;;;;;;5056365;28;20423;-70
2022/11/19 12:35:48;;;;;;;4.13;2.87;;;4.60;99.90;;;;;;5054179;28;20465;-70
2022/11/19 12:38:40;;;;;;;4.23;3.07;;;4.60;99.90;;;;;;5056627;28;20857;-74
2022/11/19 12:41:25;;;;;;;9.90;2.90;;;4.60;99.90;;;;;;5056121;28;20458;-72
2022/11/19 12:44:05;;;;;;;5.00;3.20;;;4.60;99.90;;;;;;5055393;28;20407;-72
2022/11/19 12:46:56;;;;;;;4.17;3.10;;;4.60;99.90;;;;;;5055639;28;20535;-72
2022/11/19 12:49:44;;;;;;;5.30;3.30;;;4.70;99.90;;;;;;5055451;28;20401;-76
2022/11/19 12:52:16;;;;;;;3.17;2.97;;;4.80;99.90;;;;;;5055861;28;20394;-73
2022/11/19 12:54:54;;;;;;;2.93;2.73;;;4.90;99.90;;;;;;5053593;28;20413;-76
2022/11/19 12:57:38;;;;;;;4.17;2.13;;;4.90;99.90;;;;;;5055802;28;20507;-76
2022/11/19 13:00:20;;;;;;;3.60;2.67;;;5.00;99.90;;;;;;5055650;28;20401;-71
2022/11/19 13:03:13;;;;;;;2.60;2.43;;;4.90;95.10;;;;;;5055789;28;20404;-75
2022/11/19 13:05:50;;;;;;;2.90;2.43;;;4.90;90.70;;;;;;5054246;28;20940;-71
2022/11/19 13:08:29;;;;;;;2.57;2.37;;;4.80;87.60;;;;;;5055425;28;20474;-76
2022/11/19 13:11:10;;;;;;;2.77;2.57;;;4.80;88.80;;;;;;5055388;28;20405;-76
2022/11/19 13:13:40;;;;;;;2.50;2.30;;;4.80;90.60;;;;;;5055089;28;20414;-77
2022/11/19 13:16:14;;;;;;;2.80;2.60;;;4.70;90.50;;;;;;5070764;28;20441;-72
2022/11/19 13:18:43;;;;;;;2.93;2.73;;;4.70;90.60;;;;;;5055175;28;20842;-76
2022/11/19 13:21:33;;;;;;;4.00;3.47;;;4.70;71.60;;;;;;5055268;28;20418;-76
2022/11/19 13:24:16;;;;;;;3.50;2.80;;;4.80;78.90;;;;;;5054465;28;20503;-76
2022/11/19 13:26:42;;;;;;;3.03;2.63;;;4.80;90.60;;;;;;5053321;28;20539;-76
2022/11/19 13:29:26;;;;;;;3.00;2.80;;;4.80;90.60;;;;;;5055108;28;20487;-74
2022/11/19 13:31:57;;;;;;;2.97;2.70;;;4.80;89.70;;;;;;5055307;28;20443;-73
2022/11/19 13:35:05;;;;;;;5.00;2.90;;;4.70;90.50;;;;;;5053053;28;20470;-73
2022/11/19 13:37:49;;;;;;;3.10;2.87;;;4.70;90.60;;;;;;5063039;28;20430;-73
2022/11/19 13:40:31;;;;;;;3.53;3.00;;;4.60;90.10;;;;;;5054587;28;20410;-75
2022/11/19 13:45:45;;;;;;;3.40;3.20;;;4.80;66.70;;;;;;5053437;28;20495;-73
2022/11/19 13:48:28;;;;;;;2.60;2.43;;;4.80;72.30;;;;;;5054908;28;20455;-73
2022/11/19 13:50:58;;;;;;;2.63;2.40;;;4.70;87.30;;;;;;5054794;28;20404;-73